Time;durP1;ratioP1;P1;durP2;ratioP2;P2;SDS_P1;SDS_P2;PMS_P1;PMS_P2;Temp;Humidity;BMP_temperature;BMP_pressure;BME280_temperature;BME280_humidity;BME280_pressure;Samples;Min_cycle;Max_cycle;Signal;HPM_P1;HPM_P2
2022/07/14 00:01:55;;;;;;;1.90;1.23;;;21.80;95.50;;;;;;5050272;28;20456;-71
2022/07/14 00:04:22;;;;;;;1.90;1.60;;;21.80;95.70;;;;;;5053250;28;20458;-71
2022/07/14 00:06:50;;;;;;;3.07;1.90;;;21.80;96.00;;;;;;5053372;28;20879;-70
2022/07/14 00:09:17;;;;;;;2.17;1.50;;;21.80;96.10;;;;;;5052777;28;20976;-71
2022/07/14 00:11:43;;;;;;;1.93;1.60;;;21.70;95.40;;;;;;5053554;28;20455;-70
2022/07/14 00:14:10;;;;;;;1.60;1.40;;;21.70;95.50;;;;;;5053164;28;20978;-71
2022/07/14 00:16:37;;;;;;;1.57;1.43;;;21.80;95.40;;;;;;5053073;28;21020;-71
2022/07/14 00:19:04;;;;;;;2.60;1.70;;;21.80;95.00;;;;;;5053187;28;20460;-71
2022/07/14 00:21:30;;;;;;;1.70;1.50;;;21.80;94.90;;;;;;5053046;28;20530;-71
2022/07/14 00:23:58;;;;;;;2.53;1.70;;;21.80;95.10;;;;;;5053228;28;20833;-71
2022/07/14 00:26:25;;;;;;;2.60;1.30;;;21.80;95.00;;;;;;5053050;28;20490;-71
2022/07/14 00:28:52;;;;;;;1.50;1.40;;;21.80;96.10;;;;;;5051873;28;20464;-71
2022/07/14 00:31:19;;;;;;;1.53;1.43;;;21.80;97.00;;;;;;5052735;28;20486;-71
2022/07/14 00:33:45;;;;;;;2.07;1.70;;;21.80;96.50;;;;;;5052689;28;20462;-71
2022/07/14 00:36:12;;;;;;;2.37;1.70;;;21.80;97.10;;;;;;5053138;28;20480;-71
2022/07/14 00:38:39;;;;;;;1.80;1.70;;;21.70;97.00;;;;;;5052572;28;20493;-71
2022/07/14 00:41:07;;;;;;;1.53;1.43;;;21.60;97.40;;;;;;5052588;28;20461;-71
2022/07/14 00:43:33;;;;;;;3.20;1.70;;;21.50;98.00;;;;;;5052717;28;20459;-71
2022/07/14 00:46:00;;;;;;;4.43;2.00;;;21.50;98.20;;;;;;5052513;28;21002;-71
2022/07/14 00:48:27;;;;;;;2.30;1.50;;;21.40;97.90;;;;;;5052522;28;20459;-71
2022/07/14 00:50:54;;;;;;;2.87;1.80;;;21.30;98.30;;;;;;5052134;28;20471;-71
2022/07/14 00:53:21;;;;;;;2.40;1.67;;;21.20;98.40;;;;;;5052803;28;20527;-71
2022/07/14 00:55:48;;;;;;;1.80;1.70;;;21.20;98.30;;;;;;5052349;28;20485;-71
2022/07/14 00:58:16;;;;;;;3.70;1.70;;;21.20;98.10;;;;;;5052423;28;20506;-71
2022/07/14 01:00:44;;;;;;;1.90;1.80;;;21.10;98.60;;;;;;5051669;28;20468;-71
2022/07/14 01:03:11;;;;;;;2.13;1.70;;;21.10;98.80;;;;;;5052465;28;20951;-71
2022/07/14 01:05:38;;;;;;;1.53;1.43;;;21.00;98.20;;;;;;5052171;28;20485;-71
2022/07/14 01:08:05;;;;;;;2.63;1.70;;;21.00;97.90;;;;;;5052080;28;20455;-71
2022/07/14 01:10:32;;;;;;;1.93;1.73;;;20.90;96.70;;;;;;5051859;28;20958;-71
2022/07/14 01:13:01;;;;;;;1.60;1.50;;;20.90;97.50;;;;;;5052084;28;20466;-71
2022/07/14 01:15:30;;;;;;;2.17;1.63;;;20.90;96.20;;;;;;5052007;28;20853;-71
2022/07/14 01:17:57;;;;;;;1.70;1.40;;;20.90;95.60;;;;;;5052144;28;20525;-71
2022/07/14 01:20:24;;;;;;;2.17;1.33;;;21.00;95.10;;;;;;5051553;28;20459;-71
2022/07/14 01:22:53;;;;;;;2.13;1.37;;;21.00;94.80;;;;;;5052195;28;21030;-71
2022/07/14 01:25:21;;;;;;;1.50;1.40;;;21.10;94.80;;;;;;5051823;28;20574;-71
2022/07/14 01:27:48;;;;;;;2.90;1.67;;;21.10;94.80;;;;;;5051985;28;20468;-71
2022/07/14 01:30:15;;;;;;;1.60;1.50;;;21.20;94.60;;;;;;5051214;28;20459;-71
2022/07/14 01:32:42;;;;;;;1.30;1.20;;;21.20;95.80;;;;;;5051716;28;20467;-71
2022/07/14 01:35:10;;;;;;;1.53;1.30;;;21.20;95.20;;;;;;5051925;28;20570;-71
2022/07/14 01:37:37;;;;;;;2.63;1.90;;;21.10;94.80;;;;;;5051405;28;20561;-71
2022/07/14 01:40:06;;;;;;;1.70;1.60;;;21.10;94.60;;;;;;5051240;28;20837;-71
2022/07/14 01:42:33;;;;;;;1.67;1.57;;;21.10;94.70;;;;;;5051338;28;20471;-71
2022/07/14 01:45:00;;;;;;;2.07;1.87;;;21.10;94.80;;;;;;5051553;28;20476;-71
2022/07/14 01:47:27;;;;;;;1.67;1.57;;;21.00;94.70;;;;;;5051279;28;20491;-71
2022/07/14 01:49:53;;;;;;;1.87;1.57;;;21.00;94.40;;;;;;5050843;28;21042;-71
2022/07/14 01:52:20;;;;;;;1.57;1.47;;;21.00;94.20;;;;;;5051507;28;20456;-71
2022/07/14 01:54:47;;;;;;;1.50;1.40;;;21.00;93.90;;;;;;5051094;28;20483;-71
2022/07/14 01:57:15;;;;;;;1.53;1.43;;;21.00;93.70;;;;;;5051360;28;20463;-71
2022/07/14 01:59:42;;;;;;;2.30;1.40;;;21.00;94.00;;;;;;5050399;28;20471;-71
2022/07/14 02:02:08;;;;;;;1.57;1.47;;;21.00;94.40;;;;;;5051369;28;20463;-71
2022/07/14 02:04:35;;;;;;;2.40;1.60;;;21.00;94.60;;;;;;5050991;28;20486;-71
2022/07/14 02:07:02;;;;;;;2.73;1.60;;;21.00;94.80;;;;;;5051341;28;20471;-71
2022/07/14 02:12:12;;;;;;;7.23;1.60;;;20.90;94.80;;;;;;5050400;28;20951;-71
2022/07/14 02:14:41;;;;;;;2.30;1.50;;;20.90;94.40;;;;;;5050886;28;20476;-71
2022/07/14 02:17:08;;;;;;;2.33;1.30;;;20.80;94.40;;;;;;5050982;28;20521;-71
2022/07/14 02:19:35;;;;;;;1.80;1.70;;;20.80;94.40;;;;;;5050311;28;20515;-71
2022/07/14 02:22:02;;;;;;;2.67;1.70;;;20.80;94.40;;;;;;5050961;28;20455;-71
2022/07/14 02:24:28;;;;;;;1.60;1.50;;;20.70;95.10;;;;;;5050304;28;20484;-71
2022/07/14 02:26:55;;;;;;;1.57;1.47;;;20.70;95.60;;;;;;5050995;28;20466;-71
2022/07/14 02:29:22;;;;;;;1.80;1.60;;;20.70;95.50;;;;;;5050145;28;20856;-71
2022/07/14 02:31:50;;;;;;;1.87;1.60;;;20.50;95.80;;;;;;5050817;28;20466;-71
2022/07/14 02:34:17;;;;;;;1.73;1.50;;;20.50;96.00;;;;;;5050664;28;20471;-71
2022/07/14 02:36:45;;;;;;;3.40;1.40;;;20.40;96.70;;;;;;5050839;28;21286;-71
2022/07/14 02:39:12;;;;;;;1.57;1.47;;;20.30;96.10;;;;;;5050512;28;20488;-71
2022/07/14 02:41:40;;;;;;;3.40;1.70;;;20.20;96.80;;;;;;5050416;28;20460;-71
2022/07/14 02:44:08;;;;;;;2.10;1.30;;;20.10;96.80;;;;;;5050656;28;20506;-71
2022/07/14 02:46:36;;;;;;;1.50;1.40;;;20.00;97.90;;;;;;5050293;28;20468;-71
2022/07/14 02:49:04;;;;;;;2.40;1.70;;;19.80;97.70;;;;;;5050650;28;20491;-71
2022/07/14 02:51:31;;;;;;;2.40;1.63;;;19.70;97.40;;;;;;5050045;28;20538;-71
2022/07/14 02:53:57;;;;;;;1.90;1.60;;;19.60;98.00;;;;;;5050670;28;20517;-71
2022/07/14 02:56:24;;;;;;;2.20;1.50;;;19.40;98.10;;;;;;5051110;28;20483;-71
2022/07/14 02:58:51;;;;;;;1.73;1.63;;;19.30;98.20;;;;;;5050132;28;20577;-71
2022/07/14 03:01:18;;;;;;;1.87;1.50;;;19.20;98.40;;;;;;5049996;28;20884;-71
2022/07/14 03:03:45;;;;;;;2.83;1.47;;;19.20;98.60;;;;;;5050343;28;20970;-71
2022/07/14 03:06:14;;;;;;;2.13;1.20;;;19.10;98.30;;;;;;5050596;28;20850;-71
2022/07/14 03:08:41;;;;;;;3.50;1.90;;;19.00;98.20;;;;;;5050324;28;20456;-71
2022/07/14 03:11:08;;;;;;;2.00;1.40;;;18.90;99.00;;;;;;5049677;28;20462;-71
2022/07/14 03:13:35;;;;;;;2.60;1.93;;;18.80;99.10;;;;;;5050568;28;20875;-71
2022/07/14 03:16:02;;;;;;;2.07;1.87;;;18.70;99.00;;;;;;5050178;28;20483;-71
2022/07/14 03:18:29;;;;;;;2.27;1.60;;;18.70;99.50;;;;;;5050099;28;20490;-71
2022/07/14 03:20:56;;;;;;;2.07;1.87;;;18.60;99.30;;;;;;5049667;28;20463;-71
2022/07/14 03:23:24;;;;;;;3.03;1.80;;;18.50;99.10;;;;;;5050346;28;20981;-71
2022/07/14 03:25:51;;;;;;;1.60;1.50;;;18.50;99.20;;;;;;5050262;28;20483;-71
2022/07/14 03:28:18;;;;;;;1.83;1.73;;;18.40;99.30;;;;;;5050115;28;20455;-69
2022/07/14 03:30:44;;;;;;;1.40;1.30;;;18.40;99.80;;;;;;5049636;28;20467;-69
2022/07/14 03:33:11;;;;;;;2.80;1.70;;;18.30;99.60;;;;;;5031833;28;20474;-69
2022/07/14 03:35:38;;;;;;;2.33;1.60;;;18.20;99.70;;;;;;5027400;28;20484;-70
2022/07/14 03:38:05;;;;;;;2.00;1.70;;;18.20;99.90;;;;;;5030123;28;20511;-70
2022/07/14 03:40:34;;;;;;;2.00;1.53;;;18.10;99.90;;;;;;5143353;22;20495;-69
2022/07/14 03:43:01;;;;;;;2.93;1.73;;;18.00;99.90;;;;;;5050404;28;20475;-69
2022/07/14 03:45:28;;;;;;;2.80;1.80;;;17.90;99.90;;;;;;5051575;28;20515;-69
2022/07/14 03:47:55;;;;;;;1.50;1.40;;;17.80;99.90;;;;;;5052475;28;20459;-69
2022/07/14 03:50:22;;;;;;;1.70;1.57;;;17.80;99.90;;;;;;5053407;28;20474;-69
2022/07/14 03:52:48;;;;;;;2.37;1.57;;;17.70;99.90;;;;;;5053768;28;20529;-68
2022/07/14 03:55:15;;;;;;;1.73;1.63;;;17.70;99.90;;;;;;5053321;28;20483;-68
2022/07/14 03:57:43;;;;;;;2.00;1.80;;;17.60;99.90;;;;;;5038665;28;20456;-70
2022/07/14 04:00:11;;;;;;;2.87;1.67;;;17.60;99.90;;;;;;5049592;28;20458;-70
2022/07/14 04:02:37;;;;;;;2.10;1.90;;;17.70;99.90;;;;;;5038708;28;20539;-70
2022/07/14 04:05:05;;;;;;;1.87;1.70;;;17.70;99.90;;;;;;5041569;28;20482;-70
2022/07/14 04:07:32;;;;;;;2.03;1.50;;;17.80;99.90;;;;;;5040298;28;20459;-71
2022/07/14 04:09:58;;;;;;;2.07;1.40;;;17.90;98.80;;;;;;5040336;28;20449;-70
2022/07/14 04:12:25;;;;;;;1.73;1.40;;;18.00;98.80;;;;;;5043996;28;20452;-69
2022/07/14 04:14:54;;;;;;;2.17;1.40;;;18.10;97.30;;;;;;5041297;28;21139;-70
2022/07/14 04:17:20;;;;;;;1.93;1.50;;;18.30;98.00;;;;;;5041184;28;20879;-71
2022/07/14 04:19:47;;;;;;;3.50;1.47;;;18.40;97.30;;;;;;5041187;28;20483;-71
2022/07/14 04:22:14;;;;;;;2.50;1.40;;;18.50;97.40;;;;;;5044122;28;20459;-69
2022/07/14 04:24:41;;;;;;;3.03;1.53;;;18.60;96.60;;;;;;5043346;28;20475;-69
2022/07/14 04:27:08;;;;;;;1.40;1.30;;;18.60;96.70;;;;;;5051822;28;20509;-69
2022/07/14 04:29:35;;;;;;;1.97;1.33;;;18.70;96.80;;;;;;5033498;28;20948;-70
2022/07/14 04:32:03;;;;;;;1.67;1.40;;;18.80;97.40;;;;;;5033089;28;20464;-69
2022/07/14 04:34:30;;;;;;;2.00;1.70;;;18.80;98.50;;;;;;5032427;28;20480;-70
2022/07/14 04:36:57;;;;;;;2.17;1.40;;;18.80;99.20;;;;;;5032402;28;20471;-69
2022/07/14 04:39:23;;;;;;;1.77;1.67;;;18.80;99.70;;;;;;5032406;28;20506;-70
2022/07/14 04:41:50;;;;;;;1.70;1.60;;;18.70;99.90;;;;;;5032787;28;20476;-70
2022/07/14 04:44:17;;;;;;;2.23;1.80;;;18.70;99.90;;;;;;5032840;28;20502;-70
2022/07/14 04:46:43;;;;;;;2.17;1.53;;;18.60;99.90;;;;;;5032714;28;20989;-70
2022/07/14 04:52:04;;;;;;;2.80;2.03;;;18.50;99.90;;;;;;5032940;28;20443;-69
2022/07/14 04:54:33;;;;;;;2.70;1.53;;;18.50;99.90;;;;;;5032386;28;20480;-70
2022/07/14 04:57:00;;;;;;;3.23;1.57;;;18.50;99.90;;;;;;5032606;28;20460;-69
2022/07/14 04:59:27;;;;;;;1.83;1.40;;;18.50;99.90;;;;;;5031733;28;20524;-69
2022/07/14 05:01:54;;;;;;;1.60;1.40;;;18.50;99.90;;;;;;5032886;28;20619;-70
2022/07/14 05:04:23;;;;;;;2.70;1.30;;;18.50;99.90;;;;;;5032406;28;20836;-69
2022/07/14 05:06:50;;;;;;;3.73;1.87;;;18.60;99.90;;;;;;5032538;28;20456;-71
2022/07/14 05:09:18;;;;;;;2.30;2.10;;;18.60;99.90;;;;;;5032011;28;20487;-69
2022/07/14 05:11:45;;;;;;;1.70;1.50;;;18.60;99.90;;;;;;5032134;28;20464;-70
2022/07/14 05:14:12;;;;;;;3.73;1.60;;;18.60;99.90;;;;;;5032372;28;20460;-70
2022/07/14 05:16:39;;;;;;;2.90;1.60;;;18.60;99.90;;;;;;5032114;28;20464;-70
2022/07/14 05:19:06;;;;;;;1.87;1.67;;;18.60;99.90;;;;;;5032113;28;20507;-69
2022/07/14 05:21:34;;;;;;;2.40;1.77;;;18.70;99.90;;;;;;5031871;28;20460;-69
2022/07/14 05:24:01;;;;;;;3.83;1.93;;;18.70;99.90;;;;;;5032279;28;20876;-70
2022/07/14 05:26:27;;;;;;;1.60;1.50;;;18.80;99.90;;;;;;5032113;28;20984;-70
2022/07/14 05:28:54;;;;;;;1.90;1.50;;;18.80;99.90;;;;;;5032727;28;20466;-70
2022/07/14 05:31:21;;;;;;;1.93;1.53;;;18.90;99.90;;;;;;5031430;28;20956;-69
2022/07/14 05:33:48;;;;;;;1.70;1.50;;;19.00;99.90;;;;;;5031763;28;20467;-69
2022/07/14 05:36:15;;;;;;;3.90;1.60;;;19.10;99.90;;;;;;5032012;28;20488;-70
2022/07/14 05:38:43;;;;;;;1.93;1.57;;;19.20;99.90;;;;;;5031581;28;20748;-70
2022/07/14 05:41:11;;;;;;;2.60;1.60;;;19.30;99.90;;;;;;5031341;28;21150;-70
2022/07/14 05:43:37;;;;;;;1.60;1.40;;;19.30;99.90;;;;;;5030831;28;20465;-69
2022/07/14 05:46:06;;;;;;;1.73;1.43;;;19.40;99.90;;;;;;5031120;28;20487;-70
2022/07/14 05:48:33;;;;;;;1.67;1.53;;;19.50;99.90;;;;;;5031481;28;20471;-70
2022/07/14 05:51:07;;;;;;;1.93;1.60;;;19.60;99.90;;;;;;5030934;28;20468;-70
2022/07/14 05:53:35;;;;;;;1.83;1.53;;;19.70;99.90;;;;;;5031598;28;20500;-69
2022/07/14 05:56:05;;;;;;;2.50;2.20;;;19.80;99.90;;;;;;5031333;28;20551;-69
2022/07/14 05:58:33;;;;;;;2.10;1.90;;;19.90;99.90;;;;;;5030956;28;20637;-70
2022/07/14 06:01:00;;;;;;;2.57;1.67;;;20.00;99.90;;;;;;5069663;22;20489;-90
2022/07/14 06:03:27;;;;;;;1.70;1.50;;;20.20;99.50;;;;;;5019659;28;20457;-91
2022/07/14 06:05:54;;;;;;;2.67;1.70;;;20.40;98.20;;;;;;5019936;28;20505;-91
2022/07/14 06:11:17;;;;;;;4.10;1.83;;;20.70;96.60;;;;;;5019991;28;20473;-90
2022/07/14 06:13:45;;;;;;;1.83;1.60;;;20.80;95.90;;;;;;5017637;28;20457;-91
2022/07/14 06:16:14;;;;;;;1.77;1.63;;;21.00;96.00;;;;;;5019251;28;20552;-92
2022/07/14 06:18:41;;;;;;;2.43;1.40;;;21.20;96.20;;;;;;5017732;28;20453;-91
2022/07/14 06:21:09;;;;;;;1.97;1.70;;;21.30;96.30;;;;;;5019489;28;20580;-92
2022/07/14 06:23:38;;;;;;;2.00;1.40;;;21.50;96.10;;;;;;5018462;28;20476;-91
2022/07/14 06:26:12;;;;;;;2.27;1.50;;;21.70;96.00;;;;;;5019605;28;20480;-91
2022/07/14 06:28:39;;;;;;;2.93;1.70;;;21.80;96.00;;;;;;5017253;28;20440;-91
2022/07/14 06:31:07;;;;;;;2.13;1.57;;;21.90;96.00;;;;;;5016178;28;20493;-91
2022/07/14 06:33:34;;;;;;;3.10;1.80;;;22.10;96.00;;;;;;5018918;28;20465;-91
2022/07/14 06:36:02;;;;;;;1.73;1.63;;;22.20;95.60;;;;;;5018434;28;20555;-90
2022/07/14 06:38:29;;;;;;;1.60;1.50;;;22.30;95.70;;;;;;5017468;28;20454;-91
2022/07/14 06:40:59;;;;;;;4.63;1.77;;;22.40;96.30;;;;;;5019097;28;20494;-91
2022/07/14 06:43:30;;;;;;;1.83;1.67;;;22.50;96.20;;;;;;5018754;28;20465;-92
2022/07/14 06:45:57;;;;;;;2.70;1.50;;;22.60;96.80;;;;;;5017786;28;20473;-92
2022/07/14 06:48:24;;;;;;;2.10;1.90;;;22.60;97.10;;;;;;5015071;28;20472;-93
2022/07/14 06:50:51;;;;;;;1.90;1.70;;;22.70;96.80;;;;;;5014553;28;20481;-93
2022/07/14 06:53:18;;;;;;;2.33;1.83;;;22.80;96.80;;;;;;5014899;28;20468;-92
2022/07/14 06:55:46;;;;;;;1.90;1.77;;;22.90;96.70;;;;;;5015066;28;20496;-92
2022/07/14 06:58:13;;;;;;;2.63;1.60;;;23.10;97.10;;;;;;5016318;28;20455;-93
2022/07/14 07:00:42;;;;;;;2.00;1.60;;;23.10;96.80;;;;;;5012272;28;20483;-92
2022/07/14 07:03:13;;;;;;;2.10;1.90;;;23.20;96.40;;;;;;5015524;28;20534;-93
2022/07/14 07:08:25;;;;;;;2.23;1.67;;;23.40;96.10;;;;;;4995315;28;20473;-92
2022/07/14 07:10:52;;;;;;;3.17;2.00;;;23.40;96.20;;;;;;5015688;28;20476;-93
2022/07/14 07:13:19;;;;;;;2.00;1.80;;;23.50;96.20;;;;;;5020302;28;20952;-93
2022/07/14 07:15:47;;;;;;;2.00;1.80;;;23.60;96.70;;;;;;5019485;28;20471;-92
2022/07/14 07:18:14;;;;;;;3.20;1.57;;;23.80;96.70;;;;;;5018921;28;20472;-93
2022/07/14 07:20:41;;;;;;;2.80;1.80;;;23.90;96.60;;;;;;5019475;28;20485;-93
2022/07/14 07:23:08;;;;;;;1.80;1.57;;;24.00;96.60;;;;;;5019765;28;20495;-93
2022/07/14 07:25:35;;;;;;;2.03;1.53;;;24.10;96.40;;;;;;5021137;28;20827;-93
2022/07/14 07:28:03;;;;;;;2.00;1.83;;;24.20;96.50;;;;;;5021993;28;20461;-93
2022/07/14 07:30:31;;;;;;;2.27;1.60;;;24.40;96.30;;;;;;5021656;28;20481;-93
2022/07/14 07:32:59;;;;;;;2.00;1.80;;;24.50;96.00;;;;;;5020722;28;20465;-93
2022/07/14 07:35:26;;;;;;;2.27;1.60;;;24.60;96.80;;;;;;5019378;28;20954;-93
2022/07/14 07:37:53;;;;;;;3.33;1.90;;;24.80;95.50;;;;;;5018585;28;20837;-94
2022/07/14 07:40:20;;;;;;;1.70;1.53;;;24.90;96.00;;;;;;5017027;28;20496;-93
2022/07/14 07:42:47;;;;;;;1.73;1.60;;;25.10;95.90;;;;;;5018300;28;20457;-94
2022/07/14 07:45:13;;;;;;;1.63;1.50;;;25.20;94.30;;;;;;5017561;28;20810;-93
2022/07/14 07:47:51;;;;;;;2.57;1.77;;;25.30;94.20;;;;;;5017357;28;20468;-93
2022/07/14 07:50:19;;;;;;;2.27;2.07;;;25.40;95.30;;;;;;5016812;28;20564;-94
2022/07/14 07:52:46;;;;;;;5.23;1.80;;;25.50;94.10;;;;;;5018492;28;20463;-94
2022/07/14 07:55:13;;;;;;;1.90;1.60;;;25.50;93.50;;;;;;5019101;28;20456;-93
2022/07/14 07:57:40;;;;;;;1.87;1.77;;;25.60;92.90;;;;;;5021087;28;20519;-93
2022/07/14 08:00:08;;;;;;;1.93;1.83;;;25.70;93.30;;;;;;5022048;28;20564;-93
2022/07/14 08:02:36;;;;;;;3.50;2.17;;;25.80;95.40;;;;;;5027659;28;20464;-94
2022/07/14 08:05:03;;;;;;;3.20;1.87;;;26.00;94.10;;;;;;5030186;28;20504;-94
2022/07/14 08:07:31;;;;;;;2.57;2.00;;;26.00;93.70;;;;;;5032633;28;20461;-93
2022/07/14 08:10:01;;;;;;;4.60;1.80;;;26.00;91.80;;;;;;5025658;28;20489;-95
2022/07/14 08:12:27;;;;;;;2.10;1.80;;;26.10;93.30;;;;;;5046252;22;20504;-71
2022/07/14 08:14:54;;;;;;;3.50;1.60;;;26.20;92.80;;;;;;5032837;28;20498;-71
2022/07/14 08:17:22;;;;;;;3.00;1.90;;;26.30;92.40;;;;;;5033851;28;20465;-71
2022/07/14 08:19:50;;;;;;;1.83;1.60;;;26.30;92.30;;;;;;5032524;28;20889;-71
2022/07/14 08:22:23;;;;;;;2.97;1.87;;;26.40;92.20;;;;;;5032386;28;20457;-71
2022/07/14 08:24:51;;;;;;;2.33;1.70;;;26.40;91.20;;;;;;5032963;28;20510;-71
2022/07/14 08:27:18;;;;;;;1.83;1.73;;;26.60;91.20;;;;;;5033659;28;20467;-71
2022/07/14 08:29:45;;;;;;;2.47;2.00;;;26.70;91.90;;;;;;5032688;28;20492;-71
2022/07/14 08:32:12;;;;;;;3.30;1.97;;;26.80;90.30;;;;;;5033365;28;20685;-72
2022/07/14 08:34:38;;;;;;;3.17;2.37;;;26.80;90.90;;;;;;5032909;28;20484;-71
2022/07/14 08:37:06;;;;;;;2.37;2.10;;;26.80;91.00;;;;;;5033242;28;20460;-71
2022/07/14 08:39:34;;;;;;;2.77;2.10;;;26.80;90.10;;;;;;5032389;28;20453;-71
2022/07/14 08:42:03;;;;;;;2.53;1.80;;;26.80;91.00;;;;;;5032342;28;20473;-71
2022/07/14 08:44:30;;;;;;;2.87;1.93;;;26.90;91.30;;;;;;5032357;28;20526;-71
2022/07/14 08:46:57;;;;;;;3.17;2.10;;;27.10;91.10;;;;;;5032729;28;20475;-71
2022/07/14 08:49:24;;;;;;;3.40;2.00;;;27.10;92.00;;;;;;5032124;28;20461;-71
2022/07/14 08:51:52;;;;;;;2.53;2.10;;;27.20;91.40;;;;;;5032523;28;20478;-69
2022/07/14 08:54:19;;;;;;;2.03;1.73;;;27.20;90.10;;;;;;5032460;28;20560;-70
2022/07/14 08:56:45;;;;;;;3.60;1.90;;;27.30;90.90;;;;;;5031759;28;20465;-68
2022/07/14 08:59:14;;;;;;;2.20;1.67;;;27.40;90.00;;;;;;5032488;28;20460;-68
2022/07/14 09:01:40;;;;;;;2.57;1.70;;;27.50;89.10;;;;;;5031839;28;20456;-69
2022/07/14 09:04:07;;;;;;;2.43;2.03;;;27.60;90.70;;;;;;5031857;28;20891;-69
2022/07/14 09:06:48;;;;;;;1.87;1.73;;;27.80;89.70;;;;;;5032359;28;20745;-68
2022/07/14 09:09:17;;;;;;;2.33;1.77;;;27.90;89.20;;;;;;5031319;28;21051;-69
2022/07/14 09:11:55;;;;;;;2.63;1.70;;;27.90;87.70;;;;;;5031434;28;20522;-69
2022/07/14 09:14:24;;;;;;;3.80;1.80;;;27.90;86.00;;;;;;5031700;28;20461;-69
2022/07/14 09:16:52;;;;;;;1.97;1.77;;;28.00;90.10;;;;;;5032044;28;20464;-68
2022/07/14 09:19:20;;;;;;;2.10;1.90;;;28.20;87.60;;;;;;5031151;28;20488;-69
2022/07/14 09:21:53;;;;;;;4.97;1.83;;;28.30;87.90;;;;;;5031627;28;20467;-68
2022/07/14 09:24:22;;;;;;;2.37;1.70;;;28.30;86.20;;;;;;5031437;28;20685;-69
2022/07/14 09:26:51;;;;;;;4.13;1.97;;;28.40;88.30;;;;;;5031288;28;20474;-70
2022/07/14 09:29:19;;;;;;;2.20;2.00;;;28.60;87.70;;;;;;5031245;28;20463;-69
2022/07/14 09:31:48;;;;;;;4.87;2.23;;;28.70;89.50;;;;;;5031423;28;20485;-69
2022/07/14 09:34:27;;;;;;;2.03;1.73;;;28.80;86.80;;;;;;5031429;28;20462;-69
2022/07/14 09:37:08;;;;;;;2.17;1.70;;;28.90;82.30;;;;;;5031936;28;20918;-69
2022/07/14 09:39:36;;;;;;;2.00;1.70;;;28.80;81.70;;;;;;5031857;28;20489;-68
2022/07/14 09:42:03;;;;;;;2.53;1.40;;;28.80;78.80;;;;;;5032436;28;20476;-69
2022/07/14 09:44:30;;;;;;;1.77;1.67;;;28.70;79.10;;;;;;5031905;28;20845;-69
2022/07/14 09:46:58;;;;;;;1.50;1.30;;;28.70;80.50;;;;;;5031606;28;20475;-70
2022/07/14 09:49:27;;;;;;;1.70;1.50;;;28.80;82.70;;;;;;5030757;28;20461;-69
2022/07/14 09:52:01;;;;;;;2.00;1.80;;;29.00;80.70;;;;;;5031917;28;20491;-69
2022/07/14 09:54:47;;;;;;;1.77;1.67;;;29.20;80.10;;;;;;5031854;28;20500;-69
2022/07/14 09:57:26;;;;;;;2.73;1.83;;;29.30;80.50;;;;;;5031846;28;20466;-70
2022/07/14 09:59:55;;;;;;;2.10;1.90;;;29.40;80.40;;;;;;5031060;28;20546;-69
2022/07/14 10:02:26;;;;;;;1.97;1.77;;;29.40;79.20;;;;;;5030743;28;20460;-69
2022/07/14 10:04:55;;;;;;;1.80;1.70;;;29.40;78.90;;;;;;5031303;28;20481;-70
2022/07/14 10:07:24;;;;;;;1.90;1.70;;;29.40;79.40;;;;;;5031041;28;20461;-70
2022/07/14 10:09:56;;;;;;;3.10;1.90;;;29.40;78.20;;;;;;5030619;28;20490;-69
2022/07/14 10:12:25;;;;;;;5.07;1.83;;;29.40;78.70;;;;;;5031687;28;20475;-69
2022/07/14 10:14:53;;;;;;;2.00;1.73;;;29.40;78.10;;;;;;5030681;28;20573;-70
2022/07/14 10:17:20;;;;;;;2.60;1.50;;;29.50;80.00;;;;;;5031277;28;20952;-70
2022/07/14 10:19:48;;;;;;;1.70;1.60;;;29.70;80.00;;;;;;5030334;28;20491;-70
2022/07/14 10:22:15;;;;;;;2.57;1.80;;;30.00;85.60;;;;;;5031595;28;20586;-69
2022/07/14 10:24:43;;;;;;;2.33;1.67;;;30.10;84.20;;;;;;5030618;28;20485;-70
2022/07/14 10:27:12;;;;;;;2.60;2.17;;;30.30;83.00;;;;;;5030693;28;20469;-70
2022/07/14 10:29:39;;;;;;;3.50;2.00;;;30.40;76.40;;;;;;5030178;28;21004;-70
2022/07/14 10:32:26;;;;;;;3.10;2.00;;;30.60;79.50;;;;;;5029567;28;20493;-70
2022/07/14 10:35:03;;;;;;;2.00;1.80;;;30.70;83.10;;;;;;5030401;28;20482;-71
2022/07/14 10:37:40;;;;;;;4.70;2.00;;;30.90;79.00;;;;;;5030198;28;20775;-70
2022/07/14 10:40:17;;;;;;;3.50;2.20;;;30.90;79.40;;;;;;5029833;28;20462;-69
2022/07/14 10:42:58;;;;;;;3.43;1.83;;;30.90;77.20;;;;;;5030395;28;20473;-70
2022/07/14 10:45:26;;;;;;;1.73;1.63;;;31.00;80.50;;;;;;5030100;28;20488;-69
2022/07/14 10:47:54;;;;;;;1.50;1.40;;;31.10;78.50;;;;;;5030195;28;20509;-70
2022/07/14 10:50:23;;;;;;;2.30;1.87;;;31.20;76.30;;;;;;5029032;28;20489;-69
2022/07/14 10:53:08;;;;;;;2.20;1.87;;;31.20;79.40;;;;;;5029637;28;20474;-70
2022/07/14 10:55:37;;;;;;;2.73;2.20;;;31.20;77.10;;;;;;5030087;28;21048;-70
2022/07/14 10:58:27;;;;;;;1.90;1.80;;;31.10;75.50;;;;;;5030129;28;20485;-70
2022/07/14 11:01:01;;;;;;;2.90;1.87;;;31.20;74.70;;;;;;5029592;28;20459;-70
2022/07/14 11:03:49;;;;;;;1.80;1.70;;;31.30;75.00;;;;;;5029599;28;20469;-70
2022/07/14 11:06:21;;;;;;;2.00;1.90;;;31.50;75.80;;;;;;5030404;28;20528;-70
2022/07/14 11:09:37;;;;;;;2.03;1.60;;;31.70;78.10;;;;;;5028317;28;20460;-70
2022/07/14 11:12:12;;;;;;;2.10;1.93;;;32.00;82.10;;;;;;5025935;28;20492;-70
2022/07/14 11:14:40;;;;;;;3.00;2.00;;;32.20;79.10;;;;;;5029219;28;20481;-70
2022/07/14 11:17:08;;;;;;;4.17;1.80;;;32.30;79.50;;;;;;5030781;28;20840;-70
2022/07/14 11:19:37;;;;;;;2.57;1.83;;;32.30;75.00;;;;;;5029252;28;20463;-67
2022/07/14 11:22:18;;;;;;;3.03;1.80;;;32.40;76.20;;;;;;5030342;28;20888;-68
2022/07/14 11:24:50;;;;;;;2.00;1.80;;;32.40;75.60;;;;;;5029748;28;20481;-68
2022/07/14 11:27:28;;;;;;;2.53;1.80;;;32.50;75.50;;;;;;5029416;28;20457;-68
2022/07/14 11:29:57;;;;;;;3.83;2.07;;;32.50;77.10;;;;;;5029139;28;20468;-68
2022/07/14 11:32:32;;;;;;;2.63;1.80;;;32.60;75.70;;;;;;5029324;28;21111;-69
2022/07/14 11:38:02;;;;;;;3.30;2.13;;;33.00;81.50;;;;;;5030165;28;20442;-69
2022/07/14 11:40:47;;;;;;;2.40;2.00;;;33.00;76.90;;;;;;5029834;28;20462;-69
2022/07/14 11:43:37;;;;;;;2.47;1.97;;;33.00;77.20;;;;;;5030130;28;20460;-69
2022/07/14 11:46:06;;;;;;;2.50;2.27;;;33.10;79.10;;;;;;5029225;28;20481;-69
2022/07/14 11:48:34;;;;;;;3.87;2.33;;;33.10;77.60;;;;;;5029524;28;20464;-69
2022/07/14 11:51:03;;;;;;;1.90;1.80;;;33.20;80.00;;;;;;5028112;28;20901;-68
2022/07/14 11:53:32;;;;;;;3.10;1.90;;;33.20;76.60;;;;;;5030033;28;20461;-69
2022/07/14 11:56:00;;;;;;;2.10;1.70;;;33.20;76.80;;;;;;5028907;28;20492;-69
2022/07/14 11:58:27;;;;;;;3.10;1.83;;;33.20;76.90;;;;;;5031216;28;20859;-69
2022/07/14 12:00:55;;;;;;;2.47;2.03;;;33.40;79.90;;;;;;5032698;28;20463;-68
2022/07/14 12:03:23;;;;;;;3.40;1.80;;;33.60;80.00;;;;;;5031994;28;20904;-69
2022/07/14 12:05:52;;;;;;;4.13;1.90;;;33.50;76.60;;;;;;5033231;28;20922;-69
2022/07/14 12:08:22;;;;;;;2.07;1.87;;;33.50;73.70;;;;;;5032871;28;20493;-68
2022/07/14 12:10:51;;;;;;;3.80;2.10;;;33.60;73.70;;;;;;5031928;28;20926;-69
2022/07/14 12:13:19;;;;;;;2.80;1.90;;;33.60;74.70;;;;;;5032895;28;20460;-69
2022/07/14 12:15:46;;;;;;;2.33;2.13;;;33.80;76.20;;;;;;5032425;28;20540;-69
2022/07/14 12:18:14;;;;;;;3.93;2.00;;;33.80;72.90;;;;;;5032760;28;20489;-68
2022/07/14 12:20:43;;;;;;;1.77;1.67;;;33.80;76.20;;;;;;5032019;28;20457;-68
2022/07/14 12:23:10;;;;;;;2.90;2.00;;;33.90;75.30;;;;;;5033218;28;20456;-68
2022/07/14 12:25:38;;;;;;;2.50;2.00;;;34.00;79.10;;;;;;5032412;28;20476;-68
2022/07/14 12:28:09;;;;;;;3.87;3.07;;;34.10;77.70;;;;;;5031770;28;20467;-69
2022/07/14 12:30:44;;;;;;;2.97;2.27;;;33.80;75.20;;;;;;5032353;28;20884;-68
2022/07/14 12:33:12;;;;;;;4.90;2.10;;;33.60;76.90;;;;;;5032212;28;20460;-69
2022/07/14 12:35:40;;;;;;;7.20;2.07;;;33.70;78.40;;;;;;5032445;28;20514;-68
2022/07/14 12:38:08;;;;;;;2.50;2.00;;;33.70;74.70;;;;;;5032400;28;20495;-69
2022/07/14 12:40:35;;;;;;;3.10;2.00;;;33.80;76.80;;;;;;5031411;28;20496;-67
2022/07/14 12:43:03;;;;;;;3.40;2.20;;;33.90;75.70;;;;;;5032506;28;20470;-68
2022/07/14 12:45:31;;;;;;;6.60;2.07;;;34.00;75.90;;;;;;5032461;28;21008;-69
2022/07/14 12:48:01;;;;;;;3.07;2.43;;;34.00;74.10;;;;;;5031998;28;20814;-69
2022/07/14 12:50:29;;;;;;;2.50;1.90;;;33.90;73.30;;;;;;5031575;28;20978;-68
2022/07/14 12:52:58;;;;;;;1.87;1.77;;;33.60;72.80;;;;;;5031633;28;20763;-68
2022/07/14 12:55:36;;;;;;;2.70;2.13;;;33.30;73.70;;;;;;5032001;28;20478;-67
2022/07/14 12:58:04;;;;;;;3.30;2.03;;;33.10;74.80;;;;;;5031820;28;20464;-68
2022/07/14 13:00:33;;;;;;;3.80;1.90;;;32.80;74.90;;;;;;5031710;28;20948;-68
2022/07/14 13:03:12;;;;;;;4.77;1.80;;;32.60;73.80;;;;;;5031223;28;20491;-68
2022/07/14 13:05:44;;;;;;;3.37;2.10;;;32.50;74.60;;;;;;5031735;28;20487;-69
2022/07/14 13:08:30;;;;;;;1.93;1.60;;;32.40;76.10;;;;;;5031702;28;20826;-68
2022/07/14 13:10:59;;;;;;;4.27;2.30;;;32.20;77.80;;;;;;5031421;28;20487;-68